Time;durP1;ratioP1;P1;durP2;ratioP2;P2;SDS_P1;SDS_P2;PMS_P1;PMS_P2;Temp;Humidity;BMP_temperature;BMP_pressure;BME280_temperature;BME280_humidity;BME280_pressure;Samples;Min_cycle;Max_cycle;Signal;HPM_P1;HPM_P2
2022/12/11 00:01:29;;;;;;;9.77;3.30;;;;;;;;;;5127141;28;20039;-76
2022/12/11 00:03:59;;;;;;;10.57;2.92;;;;;;;;;;5126554;28;20597;-73
2022/12/11 00:06:29;;;;;;;9.30;3.40;;;;;;;;;;5126358;28;20062;-76
2022/12/11 00:08:59;;;;;;;7.82;2.70;;;;;;;;;;5126295;28;20054;-78
2022/12/11 00:11:30;;;;;;;9.02;2.97;;;;;;;;;;5127403;28;20043;-74
2022/12/11 00:13:59;;;;;;;6.20;2.50;;;;;;;;;;5126984;27;20051;-73
2022/12/11 00:16:29;;;;;;;6.82;3.20;;;;;;;;;;5129018;27;20050;-73
2022/12/11 00:19:00;;;;;;;9.07;3.15;;;;;;;;;;5129903;27;20046;-73
2022/12/11 00:21:30;;;;;;;9.38;3.30;;;;;;;;;;5127421;27;20058;-74
2022/12/11 00:24:00;;;;;;;10.07;3.50;;;;;;;;;;5129864;27;20039;-73
2022/12/11 00:26:30;;;;;;;11.85;3.58;;;;;;;;;;5127420;27;20051;-78
2022/12/11 00:28:59;;;;;;;10.85;2.63;;;;;;;;;;5130588;27;20044;-75
2022/12/11 00:31:29;;;;;;;7.22;2.88;;;;;;;;;;5130120;27;20058;-75
2022/12/11 00:34:01;;;;;;;8.63;3.40;;;;;;;;;;5129381;27;20410;-75
2022/12/11 00:36:31;;;;;;;9.63;2.95;;;;;;;;;;5130229;27;20580;-75
2022/12/11 00:39:02;;;;;;;6.97;3.22;;;;;;;;;;5130631;27;20050;-74
2022/12/11 00:41:32;;;;;;;10.27;4.15;;;;;;;;;;5130267;27;20035;-75
2022/12/11 00:44:02;;;;;;;10.25;3.28;;;;;;;;;;5128732;27;20070;-75
2022/12/11 00:46:32;;;;;;;9.85;3.92;;;;;;;;;;5129786;27;20109;-72
2022/12/11 00:49:01;;;;;;;10.20;3.85;;;;;;;;;;5129730;27;20058;-74
2022/12/11 00:51:31;;;;;;;6.45;2.95;;;;;;;;;;5130428;27;20047;-75
2022/12/11 00:54:02;;;;;;;6.72;3.40;;;;;;;;;;5129808;27;20062;-73
2022/12/11 00:56:34;;;;;;;8.80;3.05;;;;;;;;;;5129516;27;20154;-75
2022/12/11 00:59:04;;;;;;;8.07;3.03;;;;;;;;;;5129777;27;20516;-75
2022/12/11 01:01:34;;;;;;;9.90;3.92;;;;;;;;;;5129884;27;20405;-73
2022/12/11 01:04:04;;;;;;;10.25;3.30;;;;;;;;;;5130148;27;20055;-78
2022/12/11 01:06:34;;;;;;;9.07;3.10;;;;;;;;;;5129629;27;20058;-76
2022/12/11 01:11:53;;;;;;;11.55;3.05;;;;;;;;;;5128998;27;20058;-73
2022/12/11 01:14:23;;;;;;;9.02;3.42;;;;;;;;;;5129577;27;20074;-75
2022/12/11 01:16:53;;;;;;;5.70;2.90;;;;;;;;;;5129500;27;20046;-74
2022/12/11 01:19:23;;;;;;;11.05;3.47;;;;;;;;;;5129406;27;20054;-73
2022/12/11 01:21:53;;;;;;;12.63;3.25;;;;;;;;;;5129753;27;20056;-72
2022/12/11 01:24:23;;;;;;;8.57;3.83;;;;;;;;;;5129445;27;20058;-73
2022/12/11 01:26:52;;;;;;;14.35;3.25;;;;;;;;;;5128485;27;20067;-76
2022/12/11 01:29:22;;;;;;;5.28;2.92;;;;;;;;;;5129697;27;20512;-73
2022/12/11 01:31:52;;;;;;;9.20;3.58;;;;;;;;;;5129429;27;20532;-74
2022/12/11 01:34:22;;;;;;;6.47;3.20;;;;;;;;;;5131358;27;20054;-73
2022/12/11 01:36:53;;;;;;;9.15;3.33;;;;;;;;;;5130735;27;20536;-72
2022/12/11 01:39:23;;;;;;;4.65;2.97;;;;;;;;;;5129150;27;20047;-73
2022/12/11 01:41:57;;;;;;;10.02;3.70;;;;;;;;;;5128193;27;20051;-74
2022/12/11 01:44:30;;;;;;;7.50;3.80;;;;;;;;;;5128518;27;20386;-77
2022/12/11 01:47:00;;;;;;;8.35;2.92;;;;;;;;;;5128564;27;20054;-71
2022/12/11 01:49:30;;;;;;;5.93;3.38;;;;;;;;;;5128764;27;20043;-72
2022/12/11 01:52:10;;;;;;;8.02;3.13;;;;;;;;;;5128775;27;20047;-74
2022/12/11 01:54:41;;;;;;;9.27;3.40;;;;;;;;;;5129075;27;20051;-72
2022/12/11 01:57:14;;;;;;;8.70;3.17;;;;;;;;;;5129353;27;20043;-72
2022/12/11 01:59:45;;;;;;;10.02;3.55;;;;;;;;;;5128839;27;20039;-72
2022/12/11 02:02:26;;;;;;;7.47;3.08;;;;;;;;;;5128688;27;20051;-74
2022/12/11 02:04:57;;;;;;;7.25;3.75;;;;;;;;;;5127146;27;20058;-76
2022/12/11 02:07:29;;;;;;;8.90;4.38;;;;;;;;;;5128932;27;20416;-73
2022/12/11 02:09:59;;;;;;;10.95;4.03;;;;;;;;;;5128779;27;20039;-72
2022/12/11 02:12:58;;;;;;;8.43;3.60;;;;;;;;;;5128675;27;20509;-72
2022/12/11 02:15:47;;;;;;;9.23;3.28;;;;;;;;;;5128588;27;20061;-73
2022/12/11 02:18:29;;;;;;;6.85;3.45;;;;;;;;;;5128608;27;20043;-73
2022/12/11 02:21:08;;;;;;;6.75;3.90;;;;;;;;;;5128547;27;20525;-74
2022/12/11 02:24:04;;;;;;;8.95;3.50;;;;;;;;;;5128264;27;20047;-73
2022/12/11 02:26:46;;;;;;;5.88;3.08;;;;;;;;;;5127128;27;20043;-73
2022/12/11 02:29:22;;;;;;;7.25;3.40;;;;;;;;;;5127405;27;20051;-73
2022/12/11 02:32:02;;;;;;;9.18;3.83;;;;;;;;;;5127957;27;20043;-74
2022/12/11 02:35:11;;;;;;;9.57;4.15;;;;;;;;;;5127799;27;20054;-73
2022/12/11 02:37:44;;;;;;;6.72;3.75;;;;;;;;;;5118724;27;20051;-73
2022/12/11 02:40:23;;;;;;;13.32;4.53;;;;;;;;;;5128015;27;20051;-74
2022/12/11 02:43:06;;;;;;;9.18;4.03;;;;;;;;;;5127706;27;20047;-74
2022/12/11 02:45:38;;;;;;;11.25;4.30;;;;;;;;;;5126934;27;20505;-73
2022/12/11 02:48:11;;;;;;;10.05;3.88;;;;;;;;;;5127430;27;20042;-74
2022/12/11 02:50:46;;;;;;;9.57;3.70;;;;;;;;;;5128741;27;20058;-74
2022/12/11 02:53:21;;;;;;;8.90;3.38;;;;;;;;;;5127342;27;20054;-74
2022/12/11 02:56:00;;;;;;;9.00;3.20;;;;;;;;;;5127733;27;20042;-74
2022/12/11 02:58:32;;;;;;;9.75;4.55;;;;;;;;;;5128031;27;20055;-74
2022/12/11 03:01:03;;;;;;;10.98;3.90;;;;;;;;;;5110289;27;20048;-74
2022/12/11 03:03:33;;;;;;;12.13;4.18;;;;;;;;;;5107174;28;20051;-74
2022/12/11 03:06:03;;;;;;;10.65;4.07;;;;;;;;;;5106752;28;20052;-75
2022/12/11 03:08:34;;;;;;;11.93;3.97;;;;;;;;;;5107119;28;20043;-74
2022/12/11 03:11:04;;;;;;;8.98;3.45;;;;;;;;;;5107239;28;20040;-74
2022/12/11 03:13:33;;;;;;;9.77;3.80;;;;;;;;;;5106797;28;20044;-74
2022/12/11 03:16:29;;;;;;;12.43;3.78;;;;;;;;;;5106832;28;20498;-74
2022/12/11 03:19:11;;;;;;;10.48;4.40;;;;;;;;;;5107577;28;20402;-74
2022/12/11 03:22:09;;;;;;;7.90;3.28;;;;;;;;;;5106726;28;20888;-74
2022/12/11 03:25:06;;;;;;;16.25;4.55;;;;;;;;;;5107071;28;20409;-74
2022/12/11 03:27:44;;;;;;;10.77;3.85;;;;;;;;;;5105606;28;20047;-74
2022/12/11 03:30:17;;;;;;;9.68;3.53;;;;;;;;;;5105229;28;20054;-74
2022/12/11 03:32:52;;;;;;;12.95;3.60;;;;;;;;;;5103968;28;20056;-73
2022/12/11 03:35:36;;;;;;;9.88;3.85;;;;;;;;;;5106790;28;20414;-73
2022/12/11 03:38:21;;;;;;;12.93;3.72;;;;;;;;;;5106695;28;20043;-74
2022/12/11 03:40:54;;;;;;;8.27;3.30;;;;;;;;;;5106327;28;20048;-73
2022/12/11 03:43:27;;;;;;;8.90;3.70;;;;;;;;;;5106348;28;20040;-74
2022/12/11 03:45:58;;;;;;;7.60;3.75;;;;;;;;;;5105424;28;20526;-74
2022/12/11 03:48:34;;;;;;;6.80;3.88;;;;;;;;;;5106087;28;20059;-74
2022/12/11 03:51:06;;;;;;;11.10;4.00;;;;;;;;;;5106789;28;20051;-75
2022/12/11 03:53:38;;;;;;;7.20;3.20;;;;;;;;;;5110726;28;20054;-74
2022/12/11 03:56:11;;;;;;;9.25;3.70;;;;;;;;;;5110587;28;20058;-78
2022/12/11 03:58:41;;;;;;;6.72;3.67;;;;;;;;;;5110650;28;20494;-74
2022/12/11 04:01:11;;;;;;;7.93;3.67;;;;;;;;;;5110405;28;20056;-76
2022/12/11 04:03:41;;;;;;;11.35;4.13;;;;;;;;;;5110662;28;20048;-74
2022/12/11 04:06:11;;;;;;;6.22;3.50;;;;;;;;;;5110258;28;20054;-74
2022/12/11 04:08:41;;;;;;;9.18;3.35;;;;;;;;;;5110747;28;20040;-74
2022/12/11 04:16:55;;;;;;;9.20;3.63;;;;;;;;;;5110272;28;20040;-74
2022/12/11 04:25:06;;;;;;;8.38;2.97;;;;;;;;;;5109510;28;20070;-74
2022/12/11 04:27:49;;;;;;;10.90;3.10;;;;;;;;;;5109859;28;20058;-75
2022/12/11 04:30:24;;;;;;;6.25;3.10;;;;;;;;;;5109754;28;20055;-74
2022/12/11 04:33:01;;;;;;;8.65;3.50;;;;;;;;;;5109892;28;20051;-74
2022/12/11 04:35:32;;;;;;;13.77;3.58;;;;;;;;;;5108948;28;20075;-74
2022/12/11 04:38:01;;;;;;;7.50;3.30;;;;;;;;;;5124369;27;20407;-74
2022/12/11 04:40:31;;;;;;;11.13;3.85;;;;;;;;;;5109709;28;20043;-74
2022/12/11 04:43:01;;;;;;;9.32;3.60;;;;;;;;;;5110029;28;20051;-74
2022/12/11 04:45:31;;;;;;;11.98;3.75;;;;;;;;;;5109495;28;20047;-74
2022/12/11 04:48:00;;;;;;;8.80;3.33;;;;;;;;;;5108846;28;20406;-74
2022/12/11 04:50:30;;;;;;;7.20;2.83;;;;;;;;;;5109302;28;20066;-74
2022/12/11 04:53:00;;;;;;;9.88;2.78;;;;;;;;;;5109749;28;20047;-78
2022/12/11 04:55:30;;;;;;;8.77;3.58;;;;;;;;;;5109592;28;20054;-74
2022/12/11 04:57:59;;;;;;;8.05;3.28;;;;;;;;;;5109461;28;20745;-74
2022/12/11 05:00:29;;;;;;;8.68;3.42;;;;;;;;;;5107364;28;20510;-74
2022/12/11 05:02:59;;;;;;;5.22;2.88;;;;;;;;;;5109286;28;20043;-74
2022/12/11 05:05:29;;;;;;;7.15;3.28;;;;;;;;;;5109882;28;20405;-74
2022/12/11 05:07:59;;;;;;;10.80;2.97;;;;;;;;;;5109165;28;20048;-73
2022/12/11 05:10:29;;;;;;;9.38;3.50;;;;;;;;;;5109152;28;20047;-74
2022/12/11 05:12:59;;;;;;;6.43;2.88;;;;;;;;;;5108882;28;20047;-74
2022/12/11 05:15:29;;;;;;;6.95;2.78;;;;;;;;;;5108188;28;20063;-75
2022/12/11 05:17:58;;;;;;;11.52;3.05;;;;;;;;;;5108831;28;20054;-74
2022/12/11 05:20:28;;;;;;;8.95;3.50;;;;;;;;;;5109016;28;20047;-75
2022/12/11 05:22:58;;;;;;;7.53;2.88;;;;;;;;;;5109003;28;20498;-74
2022/12/11 05:25:28;;;;;;;11.43;3.15;;;;;;;;;;5109315;28;20051;-75
2022/12/11 05:27:58;;;;;;;8.80;3.35;;;;;;;;;;5108782;28;20056;-74
2022/12/11 05:30:28;;;;;;;12.70;3.63;;;;;;;;;;5108571;28;20520;-73
2022/12/11 05:32:59;;;;;;;7.60;3.35;;;;;;;;;;5108971;28;20528;-74
2022/12/11 05:35:29;;;;;;;8.65;3.55;;;;;;;;;;5106465;28;20051;-74
2022/12/11 05:38:00;;;;;;;8.90;2.72;;;;;;;;;;5108488;28;20525;-74
2022/12/11 05:40:30;;;;;;;9.98;3.13;;;;;;;;;;5108482;28;20070;-74
2022/12/11 05:42:59;;;;;;;10.10;2.90;;;;;;;;;;5108696;28;20039;-74
2022/12/11 05:45:29;;;;;;;11.68;3.00;;;;;;;;;;5108916;28;20059;-74
2022/12/11 05:47:59;;;;;;;8.18;2.83;;;;;;;;;;5108224;27;20514;-74
2022/12/11 05:50:29;;;;;;;10.63;3.08;;;;;;;;;;5107765;28;20055;-74
2022/12/11 05:52:58;;;;;;;7.47;3.22;;;;;;;;;;5108466;28;20055;-74
2022/12/11 05:55:28;;;;;;;11.35;3.20;;;;;;;;;;5108570;28;20051;-74
2022/12/11 05:57:58;;;;;;;10.70;4.07;;;;;;;;;;5106654;28;20052;-74
2022/12/11 06:00:28;;;;;;;11.70;3.53;;;;;;;;;;5108240;28;20055;-74
2022/12/11 06:03:04;;;;;;;11.15;3.40;;;;;;;;;;5108942;28;20051;-74
2022/12/11 06:05:41;;;;;;;9.85;3.67;;;;;;;;;;5108170;28;20052;-74
2022/12/11 06:08:11;;;;;;;11.27;3.33;;;;;;;;;;5107809;28;20051;-74
2022/12/11 06:10:46;;;;;;;7.80;3.60;;;;;;;;;;5108115;28;20047;-73
2022/12/11 06:13:17;;;;;;;11.88;3.63;;;;;;;;;;5106643;28;20046;-74
2022/12/11 06:15:46;;;;;;;8.57;3.42;;;;;;;;;;5107774;28;20406;-74
2022/12/11 06:18:17;;;;;;;10.48;3.67;;;;;;;;;;5089779;28;20055;-74
2022/12/11 06:20:46;;;;;;;11.55;3.95;;;;;;;;;;5108476;28;20054;-74
2022/12/11 06:23:16;;;;;;;6.85;2.88;;;;;;;;;;5107679;28;20555;-74
2022/12/11 06:25:48;;;;;;;6.55;2.97;;;;;;;;;;5107609;28;20055;-75
2022/12/11 06:28:17;;;;;;;10.02;3.85;;;;;;;;;;5107638;28;20043;-73
2022/12/11 06:30:47;;;;;;;13.63;3.85;;;;;;;;;;5107741;28;20051;-74
2022/12/11 06:33:17;;;;;;;6.45;2.80;;;;;;;;;;5107653;28;20047;-74
2022/12/11 06:35:47;;;;;;;6.13;2.80;;;;;;;;;;5107441;28;20043;-73
2022/12/11 06:38:17;;;;;;;14.93;4.60;;;;;;;;;;5107499;28;20044;-73
2022/12/11 06:40:54;;;;;;;12.05;3.20;;;;;;;;;;5107085;28;20062;-73
2022/12/11 06:43:24;;;;;;;9.98;3.78;;;;;;;;;;5107437;28;20510;-74
2022/12/11 06:45:54;;;;;;;11.05;3.72;;;;;;;;;;5107508;28;20494;-74
2022/12/11 06:48:31;;;;;;;9.25;3.40;;;;;;;;;;5107435;28;20055;-74
2022/12/11 06:51:08;;;;;;;5.32;3.03;;;;;;;;;;5107505;28;20059;-74
2022/12/11 06:53:39;;;;;;;11.38;3.42;;;;;;;;;;5106051;28;20047;-74
2022/12/11 06:56:12;;;;;;;11.18;3.47;;;;;;;;;;5105378;28;20062;-74
2022/12/11 06:58:43;;;;;;;9.48;3.10;;;;;;;;;;5105510;28;20039;-74
2022/12/11 07:01:19;;;;;;;9.15;3.72;;;;;;;;;;5106745;28;20482;-73
2022/12/11 07:03:52;;;;;;;5.93;3.00;;;;;;;;;;5107199;28;20054;-74
2022/12/11 07:06:23;;;;;;;12.25;2.95;;;;;;;;;;5106904;28;20043;-74
2022/12/11 07:08:54;;;;;;;11.40;3.28;;;;;;;;;;5106863;28;20051;-75
2022/12/11 07:11:24;;;;;;;12.32;3.83;;;;;;;;;;5105931;28;20062;-74
2022/12/11 07:13:54;;;;;;;7.55;2.83;;;;;;;;;;5107074;28;20486;-74
2022/12/11 07:16:23;;;;;;;8.25;3.17;;;;;;;;;;5106818;28;20043;-74
2022/12/11 07:18:53;;;;;;;10.13;3.42;;;;;;;;;;5107096;28;20043;-74
2022/12/11 07:21:23;;;;;;;10.32;3.20;;;;;;;;;;5106897;28;20054;-74
2022/12/11 07:23:53;;;;;;;8.60;2.80;;;;;;;;;;5105858;28;20047;-74
2022/12/11 07:26:22;;;;;;;7.22;2.83;;;;;;;;;;5106395;28;20050;-73
2022/12/11 07:28:55;;;;;;;7.53;3.45;;;;;;;;;;5106792;28;20062;-73
2022/12/11 07:31:27;;;;;;;11.85;3.08;;;;;;;;;;5105392;28;20061;-74
2022/12/11 07:34:03;;;;;;;10.75;2.97;;;;;;;;;;5106429;28;20050;-73
2022/12/11 07:36:34;;;;;;;7.63;3.30;;;;;;;;;;5106797;28;20043;-73
2022/12/11 07:39:04;;;;;;;6.10;3.25;;;;;;;;;;5106767;28;20070;-74
2022/12/11 07:41:34;;;;;;;6.40;2.75;;;;;;;;;;5106951;28;20047;-73
2022/12/11 07:44:09;;;;;;;6.47;3.20;;;;;;;;;;5104801;28;20063;-73
2022/12/11 07:46:39;;;;;;;5.72;3.10;;;;;;;;;;5106604;28;20047;-73
2022/12/11 07:49:09;;;;;;;6.13;2.90;;;;;;;;;;5105832;28;20429;-74
2022/12/11 07:51:40;;;;;;;7.13;3.25;;;;;;;;;;5106633;28;20517;-73
2022/12/11 07:54:15;;;;;;;5.82;2.97;;;;;;;;;;5106272;28;20051;-73
2022/12/11 07:56:50;;;;;;;7.68;2.92;;;;;;;;;;5106890;28;20521;-74
2022/12/11 07:59:21;;;;;;;9.48;3.30;;;;;;;;;;5106665;28;20047;-74
2022/12/11 08:01:51;;;;;;;9.93;3.30;;;;;;;;;;5106489;28;20058;-73
2022/12/11 08:04:22;;;;;;;8.73;2.80;;;;;;;;;;5105449;28;20044;-74
2022/12/11 08:06:53;;;;;;;9.10;2.40;;;;;;;;;;5106639;28;20070;-74
2022/12/11 08:09:22;;;;;;;11.25;3.40;;;;;;;;;;5106790;28;20051;-73
2022/12/11 08:11:52;;;;;;;8.73;3.08;;;;;;;;;;5106238;28;20063;-73
2022/12/11 08:14:24;;;;;;;11.15;3.28;;;;;;;;;;5106323;28;20051;-74
2022/12/11 08:16:56;;;;;;;6.13;2.97;;;;;;;;;;5106361;28;20119;-73
2022/12/11 08:19:26;;;;;;;4.80;3.08;;;;;;;;;;5106450;28;20043;-75
2022/12/11 08:21:56;;;;;;;8.40;3.47;;;;;;;;;;5106251;28;20055;-74
2022/12/11 08:24:26;;;;;;;10.13;3.95;;;;;;;;;;5105864;28;20053;-75
2022/12/11 08:26:56;;;;;;;5.00;3.42;;;;;;;;;;5106208;28;20497;-74
2022/12/11 08:29:26;;;;;;;7.10;3.65;;;;;;;;;;5105645;28;20059;-75
2022/12/11 08:31:56;;;;;;;6.03;3.35;;;;;;;;;;5106360;28;20378;-74
2022/12/11 08:34:25;;;;;;;7.40;2.55;;;;;;;;;;5106742;28;20453;-74
2022/12/11 08:36:55;;;;;;;5.30;2.30;;;;;;;;;;5109227;28;20043;-74
2022/12/11 08:39:25;;;;;;;6.53;2.95;;;;;;;;;;5109597;28;20055;-75
2022/12/11 08:41:56;;;;;;;7.20;3.40;;;;;;;;;;5109863;28;20052;-74
2022/12/11 08:44:27;;;;;;;6.53;2.80;;;;;;;;;;5108175;28;20048;-74
2022/12/11 08:46:56;;;;;;;7.32;2.80;;;;;;;;;;5109478;28;20413;-75
2022/12/11 08:49:26;;;;;;;7.63;3.15;;;;;;;;;;5109187;28;20044;-73
2022/12/11 08:52:05;;;;;;;7.22;2.72;;;;;;;;;;5109902;28;20418;-72
2022/12/11 08:54:37;;;;;;;8.18;3.22;;;;;;;;;;5107611;28;20046;-72
2022/12/11 08:57:07;;;;;;;5.80;3.00;;;;;;;;;;5109865;28;20047;-72
2022/12/11 08:59:37;;;;;;;10.88;3.05;;;;;;;;;;5108848;28;20055;-72
2022/12/11 09:02:13;;;;;;;9.50;3.20;;;;;;;;;;5109727;28;20402;-72
2022/12/11 09:04:43;;;;;;;4.40;2.95;;;;;;;;;;5110034;28;20046;-72
2022/12/11 09:07:13;;;;;;;4.53;2.45;;;;;;;;;;5109556;28;20043;-73
2022/12/11 09:09:43;;;;;;;5.70;2.67;;;;;;;;;;5109223;28;20047;-73
2022/12/11 09:12:13;;;;;;;5.20;2.20;;;;;;;;;;5109269;28;20052;-72
2022/12/11 09:14:43;;;;;;;4.90;2.42;;;;;;;;;;5109157;28;20492;-72
2022/12/11 09:17:12;;;;;;;5.13;3.03;;;;;;;;;;5109160;28;20039;-72
2022/12/11 09:19:42;;;;;;;5.85;2.92;;;;;;;;;;5109061;28;20044;-72
2022/12/11 09:22:13;;;;;;;7.22;2.85;;;;;;;;;;5109159;28;20047;-72
2022/12/11 09:24:42;;;;;;;4.97;2.88;;;;;;;;;;5108910;28;20048;-72
2022/12/11 09:27:12;;;;;;;5.20;2.95;;;;;;;;;;5108876;28;20060;-73
2022/12/11 09:29:42;;;;;;;7.38;3.13;;;;;;;;;;5107316;28;20058;-73
2022/12/11 09:32:12;;;;;;;7.43;2.83;;;;;;;;;;5109025;28;20395;-73
2022/12/11 09:34:42;;;;;;;7.53;2.47;;;;;;;;;;5108793;28;20924;-73
2022/12/11 09:37:12;;;;;;;5.00;2.70;;;;;;;;;;5108652;28;20054;-72
2022/12/11 09:39:41;;;;;;;9.82;2.65;;;;;;;;;;5108876;28;20055;-73
2022/12/11 09:42:17;;;;;;;6.60;2.72;;;;;;;;;;5107234;28;20498;-72
2022/12/11 09:44:46;;;;;;;;;;;;;;;;;;5109091;28;20039;-72
2022/12/11 09:47:24;;;;;;;8.48;3.15;;;;;;;;;;5108288;28;19924;-73
2022/12/11 09:50:18;;;;;;;7.13;2.50;;;;;;;;;;5107834;28;20059;-73
2022/12/11 09:53:12;;;;;;;4.88;2.70;;;;;;;;;;5108470;28;20051;-73
2022/12/11 09:55:52;;;;;;;7.93;3.17;;;;;;;;;;5108411;28;20502;-72
2022/12/11 09:58:33;;;;;;;5.47;3.05;;;;;;;;;;5108537;28;20044;-73
2022/12/11 10:01:09;;;;;;;7.78;3.03;;;;;;;;;;5108239;28;20052;-73
2022/12/11 10:03:48;;;;;;;5.60;3.28;;;;;;;;;;5108376;28;20043;-73
2022/12/11 10:06:27;;;;;;;6.45;2.70;;;;;;;;;;5107272;28;20055;-73
2022/12/11 10:09:16;;;;;;;5.45;2.92;;;;;;;;;;5108138;28;20051;-73
2022/12/11 10:11:55;;;;;;;6.13;3.28;;;;;;;;;;5107693;28;20046;-73
2022/12/11 10:14:55;;;;;;;6.68;2.90;;;;;;;;;;5107775;28;20044;-73
2022/12/11 10:17:27;;;;;;;;;;;;;;;;;;5107170;28;20047;-73
2022/12/11 10:20:22;;;;;;;5.10;2.38;;;;;;;;;;5107990;28;20469;-73
2022/12/11 10:22:55;;;;;;;5.97;3.10;;;;;;;;;;5107850;28;20035;-74
2022/12/11 10:25:39;;;;;;;10.02;3.30;;;;;;;;;;5108511;28;20051;-73
2022/12/11 10:28:15;;;;;;;5.63;3.00;;;;;;;;;;5107782;28;20406;-73
2022/12/11 10:30:56;;;;;;;5.22;2.75;;;;;;;;;;5107267;28;20047;-73
2022/12/11 10:33:42;;;;;;;5.40;3.08;;;;;;;;;;5107513;28;20043;-73
2022/12/11 10:36:17;;;;;;;7.28;3.45;;;;;;;;;;5107694;28;20054;-73
2022/12/11 10:38:48;;;;;;;7.05;3.20;;;;;;;;;;5107326;28;20703;-74
2022/12/11 10:41:23;;;;;;;6.07;3.17;;;;;;;;;;5107487;28;20055;-73
2022/12/11 10:43:53;;;;;;;5.60;3.35;;;;;;;;;;5107260;28;20430;-73
2022/12/11 10:46:27;;;;;;;5.82;2.75;;;;;;;;;;5107182;28;20051;-73
2022/12/11 10:48:59;;;;;;;6.00;3.10;;;;;;;;;;5107703;28;20056;-74
2022/12/11 10:51:34;;;;;;;7.05;4.10;;;;;;;;;;5107935;28;20054;-74
2022/12/11 10:54:06;;;;;;;6.25;3.60;;;;;;;;;;5107716;28;20502;-73
2022/12/11 10:56:37;;;;;;;4.53;3.00;;;;;;;;;;5106775;28;20603;-73
2022/12/11 10:59:23;;;;;;;6.65;3.28;;;;;;;;;;5106406;28;20813;-73
2022/12/11 11:01:53;;;;;;;6.20;3.38;;;;;;;;;;5107182;28;20058;-74
2022/12/11 11:04:37;;;;;;;5.90;3.05;;;;;;;;;;5107791;28;20121;-74
2022/12/11 11:07:13;;;;;;;5.20;3.42;;;;;;;;;;5106031;28;20035;-75
2022/12/11 11:09:42;;;;;;;;;;;;;;;;;;5107433;28;20110;-75
2022/12/11 11:12:23;;;;;;;6.43;3.30;;;;;;;;;;5105328;28;20429;-75
2022/12/11 11:15:05;;;;;;;6.88;2.95;;;;;;;;;;5106322;28;20056;-74
2022/12/11 11:18:05;;;;;;;6.70;3.03;;;;;;;;;;5105528;28;20047;-79
2022/12/11 11:20:35;;;;;;;;;;;;;;;;;;5107281;28;20039;-74
2022/12/11 11:23:15;;;;;;;5.88;3.78;;;;;;;;;;5106491;28;20298;-74
2022/12/11 11:25:56;;;;;;;4.70;2.80;;;;;;;;;;5106503;28;20054;-74
2022/12/11 11:28:46;;;;;;;4.65;3.05;;;;;;;;;;5106563;28;20058;-78
2022/12/11 11:31:18;;;;;;;5.18;2.97;;;;;;;;;;5105952;28;20051;-76
2022/12/11 11:33:56;;;;;;;10.20;3.00;;;;;;;;;;5106579;28;20043;-74
2022/12/11 11:36:30;;;;;;;8.00;2.88;;;;;;;;;;5106517;28;20058;-73
2022/12/11 11:39:15;;;;;;;5.72;3.78;;;;;;;;;;5106961;28;20422;-74
2022/12/11 11:42:09;;;;;;;4.28;3.03;;;;;;;;;;5106950;28;20821;-74
2022/12/11 11:45:08;;;;;;;5.80;3.42;;;;;;;;;;5105923;28;20040;-77
2022/12/11 11:48:00;;;;;;;7.30;2.65;;;;;;;;;;5106775;28;20047;-74
2022/12/11 11:50:40;;;;;;;5.25;2.45;;;;;;;;;;5104749;28;20494;-74
2022/12/11 11:53:21;;;;;;;4.82;2.95;;;;;;;;;;5106995;28;20507;-74
2022/12/11 11:55:54;;;;;;;;;;;;;;;;;;5107376;28;20048;-75
2022/12/11 11:58:35;;;;;;;6.22;2.70;;;;;;;;;;5104970;28;19923;-75
2022/12/11 12:01:16;;;;;;;4.28;2.30;;;;;;;;;;5106458;28;20058;-72
2022/12/11 12:03:48;;;;;;;5.10;2.72;;;;;;;;;;5106044;28;20048;-74
2022/12/11 12:06:59;;;;;;;5.10;3.10;;;;;;;;;;5104769;28;20074;-76
2022/12/11 12:09:57;;;;;;;4.22;2.72;;;;;;;;;;5103981;28;20052;-73
2022/12/11 12:12:59;;;;;;;5.43;2.60;;;;;;;;;;5108929;28;20051;-74
2022/12/11 12:15:51;;;;;;;5.55;2.70;;;;;;;;;;5094593;28;20425;-75
2022/12/11 12:18:26;;;;;;;3.95;2.38;;;;;;;;;;5116176;27;20500;-75
2022/12/11 12:21:05;;;;;;;3.55;2.40;;;;;;;;;;5129222;27;20054;-76
2022/12/11 12:24:12;;;;;;;6.20;3.10;;;;;;;;;;5130320;27;20092;-77
2022/12/11 12:26:56;;;;;;;5.63;2.40;;;;;;;;;;5131046;27;20100;-75
2022/12/11 12:29:55;;;;;;;3.83;2.33;;;;;;;;;;5129804;27;20600;-75
2022/12/11 12:32:39;;;;;;;3.72;2.35;;;;;;;;;;5130141;27;20054;-74
2022/12/11 12:35:12;;;;;;;4.80;3.35;;;;;;;;;;5131110;27;20398;-74
2022/12/11 12:37:57;;;;;;;4.72;2.15;;;;;;;;;;5130984;27;20039;-74
2022/12/11 12:40:35;;;;;;;5.53;2.22;;;;;;;;;;5130340;27;20039;-78
2022/12/11 12:43:24;;;;;;;4.65;2.55;;;;;;;;;;5130265;27;20046;-75
2022/12/11 12:46:09;;;;;;;3.90;2.30;;;;;;;;;;5130288;27;20046;-74
2022/12/11 12:48:39;;;;;;;3.70;2.38;;;;;;;;;;5130060;27;20144;-75
2022/12/11 12:51:14;;;;;;;5.88;3.85;;;;;;;;;;5129475;27;20078;-74
2022/12/11 12:53:53;;;;;;;9.70;3.40;;;;;;;;;;5130362;27;20039;-74
2022/12/11 12:56:25;;;;;;;6.22;2.83;;;;;;;;;;5129833;27;20046;-79
2022/12/11 12:58:55;;;;;;;4.45;2.92;;;;;;;;;;5129551;27;20054;-75
2022/12/11 13:01:27;;;;;;;2.75;2.35;;;;;;;;;;5130097;27;20047;-74
2022/12/11 13:04:06;;;;;;;5.72;2.67;;;;;;;;;;5129528;27;20488;-74
2022/12/11 13:06:56;;;;;;;3.08;2.70;;;;;;;;;;5113616;27;20767;-76
2022/12/11 13:09:30;;;;;;;5.63;2.78;;;;;;;;;;5128135;27;20054;-74
2022/12/11 13:12:12;;;;;;;7.03;2.28;;;;;;;;;;5130078;27;20050;-74
2022/12/11 13:14:42;;;;;;;6.00;2.35;;;;;;;;;;5129713;27;20046;-77
2022/12/11 13:17:25;;;;;;;3.75;2.38;;;;;;;;;;5129396;27;20047;-74
2022/12/11 13:20:18;;;;;;;6.28;2.58;;;;;;;;;;5128481;27;20042;-73
2022/12/11 13:23:07;;;;;;;4.78;2.42;;;;;;;;;;5129124;27;20047;-73
2022/12/11 13:25:46;;;;;;;6.18;3.00;;;;;;;;;;5129248;27;20066;-74
2022/12/11 13:28:26;;;;;;;4.35;2.35;;;;;;;;;;5129078;27;20050;-75
2022/12/11 13:31:26;;;;;;;5.45;2.80;;;;;;;;;;5128829;27;20058;-74
2022/12/11 13:34:07;;;;;;;4.63;2.78;;;;;;;;;;5129321;27;20039;-77
2022/12/11 13:36:40;;;;;;;6.82;3.08;;;;;;;;;;5129340;27;20397;-78
2022/12/11 13:39:17;;;;;;;3.55;2.40;;;;;;;;;;5129463;27;20039;-75
2022/12/11 13:41:54;;;;;;;3.88;2.80;;;;;;;;;;5127609;27;20536;-74
2022/12/11 13:44:28;;;;;;;4.25;2.60;;;;;;;;;;5128339;27;20051;-73
2022/12/11 13:47:02;;;;;;;3.38;2.70;;;;;;;;;;5127476;27;20063;-75
2022/12/11 13:49:40;;;;;;;3.47;1.95;;;;;;;;;;5128213;27;20035;-75
2022/12/11 13:52:24;;;;;;;4.85;2.70;;;;;;;;;;5128494;27;20058;-75
2022/12/11 13:54:58;;;;;;;8.02;2.95;;;;;;;;;;5128449;27;20039;-75
2022/12/11 13:57:29;;;;;;;4.30;2.78;;;;;;;;;;5128971;27;20054;-75
2022/12/11 13:59:59;;;;;;;4.93;2.10;;;;;;;;;;5127108;27;20043;-75
2022/12/11 14:02:41;;;;;;;6.18;3.08;;;;;;;;;;5133608;27;20375;-75
2022/12/11 14:05:12;;;;;;;2.47;2.10;;;;;;;;;;5128304;27;20039;-74
2022/12/11 14:07:57;;;;;;;5.85;2.72;;;;;;;;;;5129279;27;20046;-76
2022/12/11 14:10:30;;;;;;;3.85;2.60;;;;;;;;;;5128354;27;20425;-80
2022/12/11 14:13:26;;;;;;;3.00;2.10;;;;;;;;;;5128908;27;20039;-74
2022/12/11 14:15:56;;;;;;;3.70;2.10;;;;;;;;;;5126686;27;20424;-74
2022/12/11 14:18:34;;;;;;;3.38;2.35;;;;;;;;;;5127185;27;20043;-75
2022/12/11 14:21:05;;;;;;;4.93;2.35;;;;;;;;;;5125851;27;20065;-79
2022/12/11 14:23:37;;;;;;;7.20;2.30;;;;;;;;;;5128010;27;20043;-78
2022/12/11 14:26:22;;;;;;;3.10;1.85;;;;;;;;;;5128328;27;20039;-74
2022/12/11 14:28:53;;;;;;;5.10;2.28;;;;;;;;;;5127226;27;20548;-75
2022/12/11 14:31:29;;;;;;;3.30;2.10;;;;;;;;;;5126539;27;20053;-77
2022/12/11 14:34:11;;;;;;;8.38;2.90;;;;;;;;;;5125845;27;20051;-77
2022/12/11 14:36:43;;;;;;;5.40;2.28;;;;;;;;;;5127995;27;20054;-75
2022/12/11 14:39:24;;;;;;;4.38;2.30;;;;;;;;;;5128197;27;20054;-78
2022/12/11 14:42:03;;;;;;;6.38;2.40;;;;;;;;;;5127567;27;20047;-75
2022/12/11 14:44:48;;;;;;;4.78;2.10;;;;;;;;;;5127103;27;20058;-77
2022/12/11 14:47:29;;;;;;;8.70;2.60;;;;;;;;;;5128100;27;20039;-75
2022/12/11 14:50:08;;;;;;;4.05;2.22;;;;;;;;;;5127294;27;20043;-75
2022/12/11 14:52:42;;;;;;;8.63;2.20;;;;;;;;;;5127643;27;20054;-76
2022/12/11 14:55:20;;;;;;;3.95;2.30;;;;;;;;;;5128069;27;20051;-76
2022/12/11 14:58:06;;;;;;;3.50;2.10;;;;;;;;;;5127673;27;20050;-73
2022/12/11 15:00:37;;;;;;;4.00;1.95;;;;;;;;;;5127784;27;20047;-73
2022/12/11 15:03:34;;;;;;;3.17;2.08;;;;;;;;;;5127327;27;20047;-75
2022/12/11 15:06:33;;;;;;;5.78;2.20;;;;;;;;;;5121043;27;20054;-72
2022/12/11 15:09:17;;;;;;;4.60;2.53;;;;;;;;;;5127871;27;20418;-73
2022/12/11 15:11:49;;;;;;;6.80;2.30;;;;;;;;;;5127456;27;20414;-73
2022/12/11 15:14:21;;;;;;;4.32;2.50;;;;;;;;;;5126860;27;20843;-78
2022/12/11 15:16:55;;;;;;;8.13;2.00;;;;;;;;;;5127550;27;20046;-73
2022/12/11 15:19:30;;;;;;;4.65;2.00;;;;;;;;;;5127288;27;20039;-72
2022/12/11 15:22:05;;;;;;;4.38;2.10;;;;;;;;;;5126999;27;20051;-73
2022/12/11 15:24:42;;;;;;;2.30;1.90;;;;;;;;;;5127374;27;20043;-72
2022/12/11 15:27:31;;;;;;;3.78;2.40;;;;;;;;;;5127149;27;20474;-73
2022/12/11 15:30:25;;;;;;;3.95;2.10;;;;;;;;;;5126099;27;20062;-72
2022/12/11 15:33:20;;;;;;;5.97;2.83;;;;;;;;;;5127018;27;20510;-73
2022/12/11 15:36:00;;;;;;;3.85;2.42;;;;;;;;;;5127462;27;20047;-71
2022/12/11 15:38:36;;;;;;;4.70;2.40;;;;;;;;;;5127157;27;20058;-76
2022/12/11 15:41:13;;;;;;;4.03;2.28;;;;;;;;;;5127175;27;20043;-77
2022/12/11 15:43:44;;;;;;;3.13;2.10;;;;;;;;;;5126960;28;20047;-73
2022/12/11 15:46:14;;;;;;;4.18;2.10;;;;;;;;;;5131434;27;20516;-74